ADDS METAR Data INFO
IDs: Format: Raw Decoded Include TAF

Data at: 1832 UTC 16 Dec 2017

KPQI 161756Z AUTO 27011KT 10SM CLR M09/M17 A2975 RMK AO2 SLP119 60000 T10891167 11089 21150 56015 FZRANO
KPQI 161656Z AUTO 30005KT 10SM CLR M09/M17 A2976 RMK AO2 SLP124 T10941172 FZRANO
KPQI 161556Z AUTO 30006KT 10SM CLR M10/M18 A2977 RMK AO2 SLP130 T11001178 FZRANO
KPQI 161456Z AUTO 31006KT 10SM CLR M11/M17 A2979 RMK AO2 SLP133 60000 T11061167 51010 FZRANO
KPQI 161356Z AUTO 33007KT 10SM SCT070 M13/M17 A2978 RMK AO2 SLP133 T11281172 FZRANO
KPQI 161256Z AUTO 35004KT 10SM BKN060 M14/M18 A2977 RMK AO2 SNE33 SLP130 P0000 T11441178 FZRANO
KPQI 161156Z AUTO 35006KT 9SM -SN OVC070 M14/M17 A2976 RMK AO2 SLP124 P0000 60000 T11441167 11139 21144 53006 FZRANO
KPQI 161056Z AUTO 35005KT 9SM -SN OVC075 M14/M16 A2975 RMK AO2 SLP120 P0000 T11391161 FZRANO
KPQI 161017Z AUTO 01003KT 8SM -SN SCT021 BKN070 M14/M16 A2974 RMK AO2 P0000 FZRANO
KPQI 160956Z AUTO 36004KT 6SM -SN BR OVC023 M14/M16 A2974 RMK AO2 SLP116 P0000 T11391156 FZRANO
KPQI 160920Z AUTO 00000KT 4SM -SN BR BKN025 BKN033 OVC048 M14/M16 A2973 RMK AO2 P0000 FZRANO
KPQI 160856Z AUTO 36003KT 9SM -SN FEW035 SCT055 M14/M16 A2974 RMK AO2 SLP118 P0000 60000 T11441161 58013 FZRANO
KPQI 160756Z AUTO 34003KT 7SM -SN FEW030 BKN039 OVC048 M14/M16 A2976 RMK AO2 SLP125 P0000 T11441161 FZRANO
KPQI 160656Z AUTO 00000KT 9SM -SN FEW029 BKN050 OVC060 M14/M17 A2978 RMK AO2 SNE12B48 SLP133 P0000 T11441167 FZRANO
KPQI 160556Z AUTO 05003KT 9SM -SN BKN040 OVC050 M14/M17 A2978 RMK AO2 SNB49 SLP133 P0000 60000 T11441167 11139 21156 58007 FZRANO
KPQI 160456Z AUTO 22003KT 10SM BKN040 BKN049 OVC060 M15/M17 A2979 RMK AO2 SLP135 T11501167 410941172 FZRANO
KPQI 160356Z AUTO 00000KT 10SM OVC100 M15/M17 A2979 RMK AO2 SLP135 T11501172 FZRANO
KPQI 160256Z AUTO 00000KT 10SM OVC100 M15/M18 A2980 RMK AO2 SLP139 T11501178 57020 FZRANO
KPQI 160156Z AUTO 00000KT 10SM BKN110 M15/M18 A2982 RMK AO2 SLP147 T11501178 FZRANO
KPQI 160056Z AUTO 00000KT 10SM BKN120 M14/M18 A2984 RMK AO2 SLP152 T11441178 FZRANO
KPQI 152356Z AUTO 00000KT 10SM CLR M13/M18 A2986 RMK AO2 SLP161 T11331178 11094 21139 56000 FZRANO
KPQI 152256Z AUTO 25004KT 10SM CLR M13/M17 A2987 RMK AO2 SLP162 T11331172 FZRANO
KPQI 152156Z AUTO 20005KT 10SM CLR M13/M17 A2986 RMK AO2 SLP159 T11281167 FZRANO
KPQI 152056Z AUTO 25003KT 10SM CLR M12/M17 A2987 RMK AO2 SLP160 T11171172 53004 FZRANO
KPQI 151956Z AUTO 24008G15KT 10SM CLR M10/M17 A2986 RMK AO2 SLP158 T11001172 FZRANO
KPQI 151856Z AUTO 24011G21KT 10SM CLR M10/M17 A2985 RMK AO2 PK WND 23027/1830 SLP154 T11001172 FZRANO
KPQI 151656Z AUTO 25009G14KT 10SM CLR M11/M18 A2985 RMK AO2 SLP153 T11061183 FZRANO
KPQI 151556Z AUTO 23010G15KT 200V270 10SM CLR M12/M19 A2986 RMK AO2 SLP158 T11171189 FZRANO
KPQI 151456Z AUTO 24005G14KT 10SM CLR M14/M20 A2986 RMK AO2 SLP158 T11391200 51022 FZRANO
KPQI 151356Z AUTO 23011G17KT 10SM CLR M16/M21 A2984 RMK AO2 SLP151 T11561206 FZRANO
KPQI 151256Z AUTO 25007KT 10SM CLR M17/M21 A2981 RMK AO2 SLP143 T11671211 FZRANO
KPQI 151156Z AUTO 28006KT 10SM CLR M17/M21 A2979 RMK AO2 SLP135 T11721211 11156 21172 53028 FZRANO
KPQI 151056Z AUTO 25009KT 10SM CLR M17/M21 A2975 RMK AO2 SLP122 T11721206 FZRANO
KPQI 150956Z AUTO 26012G20KT 10SM CLR M17/M21 A2972 RMK AO2 SLP110 T11671206 FZRANO
KPQI 150856Z AUTO 26009KT 10SM CLR M17/M21 A2971 RMK AO2 SLP105 T11671206 51024 FZRANO
KPQI 150756Z AUTO 26009G16KT 10SM CLR M17/M21 A2971 RMK AO2 SLP107 T11671206 FZRANO
KPQI 150656Z AUTO 25014G18KT 10SM CLR M16/M20 A2966 RMK AO2 SLP092 T11611200 FZRANO